Terminal Aerodrome Forecast
Issued by NWS

Home | Current Version | Previous Version | Text Only | Print | Product List | Glossary On
Versions: 1 2 3 4 5 6 7 8 9 10 11 12 13 14 15 16 17 18 19
000
FTUS43 KILX 260005 AAA
TAFBMI
TAF AMD
KBMI 260005Z 2600/2624 06012G18KT P6SM SCT006 OVC011
      TEMPO 2600/2602 3SM -DZ BR OVC006
     FM260800 03012KT P6SM SCT015
     FM261500 03012G18KT P6SM SKC=

USA.gov is the U.S. government's official web portal to all federal, state and local government web resources and services.